Time,TemperatureF,DewpointF,PressureIn,WindDirection,WindDirectionDegrees,WindSpeedMPH,WindSpeedGustMPH,Humidity,HourlyPrecipIn,Conditions,Clouds,dailyrainin,SolarRadiationWatts/m^2,SoftwareType,DateUTC
2013-06-13 00:00:00,70.0,26.0,-100.00,SSE,162,6.0,7.0,19,-99.99,,,-99.99,0.000000,,2013-06-13 06:00:00,
2013-06-13 02:00:00,71.0,27.0,-100.00,SSE,153,5.0,6.0,19,-99.99,,,-99.99,0.000000,,2013-06-13 08:00:00,
2013-06-13 03:00:00,67.0,29.0,-100.00,SSE,149,4.0,7.0,24,-99.99,,,-99.99,0.000000,,2013-06-13 09:00:00,
2013-06-13 04:00:00,65.0,29.0,-100.00,SSE,147,5.0,6.0,26,-99.99,,,-99.99,0.000000,,2013-06-13 10:00:00,
2013-06-13 04:53:00,65.0,29.0,-100.00,SSE,147,5.0,6.0,26,-99.99,,,-99.99,0.000000,,2013-06-13 10:53:00,
2013-06-13 05:00:00,65.0,30.0,-100.00,SSE,151,5.0,6.0,26,-99.99,,,-99.99,0.000000,,2013-06-13 11:00:00,
2013-06-13 05:52:00,65.0,30.0,-100.00,SSE,151,5.0,6.0,26,-99.99,,,-99.99,0.000000,,2013-06-13 11:52:00,
2013-06-13 06:00:00,65.0,32.0,-100.00,SSE,154,4.0,6.0,29,-99.99,,,-99.99,0.210000,,2013-06-13 12:00:00,
2013-06-13 06:52:00,65.0,32.0,-100.00,SSE,154,4.0,6.0,29,-99.99,,,-99.99,0.210000,,2013-06-13 12:52:00,
2013-06-13 07:00:00,68.0,35.0,-100.00,SE,143,4.0,6.0,29,-99.99,,,-99.99,31.760000,,2013-06-13 13:00:00,
2013-06-13 08:00:00,72.0,35.0,-100.00,SSE,162,4.0,5.0,26,-99.99,,,-99.99,161.699997,,2013-06-13 14:00:00,
2013-06-13 09:00:00,78.0,30.0,-100.00,South,180,6.0,6.0,17,-99.99,,,-99.99,310.200012,,2013-06-13 15:00:00,
2013-06-13 10:00:00,80.0,30.0,-100.00,South,186,11.0,-999.0,16,-99.99,,,-99.99,595.299988,,2013-06-13 16:00:00,
2013-06-13 12:00:00,84.0,24.0,-100.00,SSW,210,18.0,-999.0,11,-99.99,,,-99.99,913.000000,,2013-06-13 18:00:00,
2013-06-13 13:00:00,85.0,22.0,-100.00,SSW,205,21.0,-999.0,10,-99.99,,,-99.99,987.000000,,2013-06-13 19:00:00,
2013-06-13 14:00:00,86.0,21.0,-100.00,SSW,201,19.0,35.0,9,-99.99,,,-99.99,1009.000000,,2013-06-13 20:00:00,
2013-06-13 18:00:00,87.0,3.0,-100.00,SW,218,22.0,-999.0,4,-99.99,,,-99.99,587.200012,,2013-06-14 00:00:00,
2013-06-13 19:00:00,85.0,11.0,-100.00,SSW,212,20.0,33.0,6,-99.99,,,-99.99,387.100006,,2013-06-14 01:00:00,
2013-06-13 21:00:00,72.0,29.0,-100.00,NW,322,14.0,28.0,20,-99.99,,,-99.99,40.900002,,2013-06-14 03:00:00,
2013-06-13 22:00:00,65.0,35.0,-100.00,North,354,21.0,27.0,32,-99.99,,,-99.99,0.240000,,2013-06-14 04:00:00,
2013-06-13 23:00:00,62.0,34.0,-100.00,NNW,336,12.0,-999.0,35,-99.99,,,-99.99,0.000000,,2013-06-14 05:00:00,